sensor_id;sensor_type;location;lat;lon;timestamp;P1;durP1;ratioP1;P2;durP2;ratioP2
69459;SDS011;57182;55.712;37.612;2022-08-04T00:00:34;16.40;;;7.75;;
69459;SDS011;57182;55.712;37.612;2022-08-04T00:06:15;16.60;;;7.55;;
69459;SDS011;57182;55.712;37.612;2022-08-04T00:09:13;20.08;;;7.28;;
69459;SDS011;57182;55.712;37.612;2022-08-04T00:11:51;21.52;;;8.63;;
69459;SDS011;57182;55.712;37.612;2022-08-04T00:14:23;16.38;;;7.90;;
69459;SDS011;57182;55.712;37.612;2022-08-04T00:17:05;19.60;;;7.88;;
69459;SDS011;57182;55.712;37.612;2022-08-04T00:19:40;17.58;;;7.82;;
69459;SDS011;57182;55.712;37.612;2022-08-04T00:22:18;17.92;;;8.40;;
69459;SDS011;57182;55.712;37.612;2022-08-04T00:25:05;14.25;;;6.70;;
69459;SDS011;57182;55.712;37.612;2022-08-04T00:27:35;16.70;;;8.70;;
69459;SDS011;57182;55.712;37.612;2022-08-04T00:30:05;21.35;;;8.18;;
69459;SDS011;57182;55.712;37.612;2022-08-04T00:32:32;22.90;;;8.48;;
69459;SDS011;57182;55.712;37.612;2022-08-04T00:35:02;23.40;;;8.00;;
69459;SDS011;57182;55.712;37.612;2022-08-04T00:37:31;20.15;;;8.73;;
69459;SDS011;57182;55.712;37.612;2022-08-04T00:39:59;14.20;;;8.10;;
69459;SDS011;57182;55.712;37.612;2022-08-04T00:42:53;16.40;;;8.40;;
69459;SDS011;57182;55.712;37.612;2022-08-04T00:48:41;22.40;;;9.23;;
69459;SDS011;57182;55.712;37.612;2022-08-04T00:51:36;18.75;;;8.40;;
69459;SDS011;57182;55.712;37.612;2022-08-04T00:54:17;20.95;;;8.50;;
69459;SDS011;57182;55.712;37.612;2022-08-04T01:11:25;20.67;;;8.27;;
69459;SDS011;57182;55.712;37.612;2022-08-04T01:17:07;29.75;;;9.23;;
69459;SDS011;57182;55.712;37.612;2022-08-04T01:20:20;23.92;;;8.98;;
69459;SDS011;57182;55.712;37.612;2022-08-04T01:23:08;22.25;;;9.32;;
69459;SDS011;57182;55.712;37.612;2022-08-04T01:26:17;22.48;;;9.27;;
69459;SDS011;57182;55.712;37.612;2022-08-04T01:29:13;26.63;;;9.57;;
69459;SDS011;57182;55.712;37.612;2022-08-04T01:34:46;21.88;;;9.77;;
69459;SDS011;57182;55.712;37.612;2022-08-04T01:37:26;22.38;;;9.45;;
69459;SDS011;57182;55.712;37.612;2022-08-04T01:40:18;20.73;;;9.23;;
69459;SDS011;57182;55.712;37.612;2022-08-04T01:42:51;25.67;;;8.27;;
69459;SDS011;57182;55.712;37.612;2022-08-04T01:45:23;36.70;;;9.68;;
69459;SDS011;57182;55.712;37.612;2022-08-04T01:47:55;23.80;;;9.32;;
69459;SDS011;57182;55.712;37.612;2022-08-04T01:50:23;21.65;;;9.32;;
69459;SDS011;57182;55.712;37.612;2022-08-04T01:52:56;27.10;;;8.77;;
69459;SDS011;57182;55.712;37.612;2022-08-04T01:55:27;21.17;;;9.95;;
69459;SDS011;57182;55.712;37.612;2022-08-04T01:58:35;19.80;;;9.35;;
69459;SDS011;57182;55.712;37.612;2022-08-04T02:01:12;26.23;;;10.23;;
69459;SDS011;57182;55.712;37.612;2022-08-04T02:04:19;23.38;;;9.90;;
69459;SDS011;57182;55.712;37.612;2022-08-04T02:10:03;20.80;;;9.27;;
69459;SDS011;57182;55.712;37.612;2022-08-04T02:15:42;23.55;;;11.23;;
69459;SDS011;57182;55.712;37.612;2022-08-04T02:21:15;24.88;;;10.60;;
69459;SDS011;57182;55.712;37.612;2022-08-04T02:23:50;26.65;;;9.93;;
69459;SDS011;57182;55.712;37.612;2022-08-04T02:26:42;20.48;;;8.82;;
69459;SDS011;57182;55.712;37.612;2022-08-04T02:29:35;19.40;;;9.07;;
69459;SDS011;57182;55.712;37.612;2022-08-04T02:32:35;24.27;;;9.40;;
69459;SDS011;57182;55.712;37.612;2022-08-04T02:35:25;23.42;;;9.98;;
69459;SDS011;57182;55.712;37.612;2022-08-04T02:38:03;24.77;;;8.98;;
69459;SDS011;57182;55.712;37.612;2022-08-04T02:40:52;16.92;;;9.25;;
69459;SDS011;57182;55.712;37.612;2022-08-04T02:43:28;15.02;;;9.90;;
69459;SDS011;57182;55.712;37.612;2022-08-04T02:46:20;17.02;;;9.45;;
69459;SDS011;57182;55.712;37.612;2022-08-04T02:49:00;27.02;;;9.90;;
69459;SDS011;57182;55.712;37.612;2022-08-04T02:51:41;20.88;;;9.70;;
69459;SDS011;57182;55.712;37.612;2022-08-04T02:54:53;22.17;;;9.30;;
69459;SDS011;57182;55.712;37.612;2022-08-04T02:57:35;21.40;;;10.07;;
69459;SDS011;57182;55.712;37.612;2022-08-04T03:00:17;20.02;;;9.77;;
69459;SDS011;57182;55.712;37.612;2022-08-04T03:05:52;17.45;;;9.95;;
69459;SDS011;57182;55.712;37.612;2022-08-04T03:31:53;20.65;;;9.52;;
69459;SDS011;57182;55.712;37.612;2022-08-04T03:44:37;24.17;;;10.23;;
69459;SDS011;57182;55.712;37.612;2022-08-04T03:49:05;19.92;;;9.48;;
69459;SDS011;57182;55.712;37.612;2022-08-04T04:17:07;19.98;;;9.02;;
69459;SDS011;57182;55.712;37.612;2022-08-04T04:47:47;15.80;;;8.13;;
69459;SDS011;57182;55.712;37.612;2022-08-04T05:07:47;18.27;;;7.22;;
69459;SDS011;57182;55.712;37.612;2022-08-04T05:44:14;20.52;;;5.30;;
69459;SDS011;57182;55.712;37.612;2022-08-04T05:48:18;17.98;;;5.03;;
69459;SDS011;57182;55.712;37.612;2022-08-04T05:51:06;28.65;;;15.80;;
69459;SDS011;57182;55.712;37.612;2022-08-04T06:09:25;19.20;;;6.65;;
69459;SDS011;57182;55.712;37.612;2022-08-04T06:13:28;7.55;;;2.90;;
69459;SDS011;57182;55.712;37.612;2022-08-04T06:17:25;10.50;;;3.90;;
69459;SDS011;57182;55.712;37.612;2022-08-04T06:21:04;9.48;;;3.78;;
69459;SDS011;57182;55.712;37.612;2022-08-04T06:32:31;19.25;;;4.43;;
69459;SDS011;57182;55.712;37.612;2022-08-04T06:36:08;8.40;;;3.00;;
69459;SDS011;57182;55.712;37.612;2022-08-04T06:40:00;7.85;;;2.83;;
69459;SDS011;57182;55.712;37.612;2022-08-04T06:43:43;7.28;;;3.10;;
69459;SDS011;57182;55.712;37.612;2022-08-04T06:51:26;12.02;;;3.22;;
69459;SDS011;57182;55.712;37.612;2022-08-04T06:59:55;4.40;;;2.70;;
69459;SDS011;57182;55.712;37.612;2022-08-04T07:03:34;6.45;;;3.10;;
69459;SDS011;57182;55.712;37.612;2022-08-04T07:07:38;6.50;;;2.90;;
69459;SDS011;57182;55.712;37.612;2022-08-04T07:15:13;5.45;;;3.13;;
69459;SDS011;57182;55.712;37.612;2022-08-04T07:22:48;3.97;;;2.70;;
69459;SDS011;57182;55.712;37.612;2022-08-04T07:26:09;8.85;;;2.70;;
69459;SDS011;57182;55.712;37.612;2022-08-04T07:29:51;8.18;;;3.33;;
69459;SDS011;57182;55.712;37.612;2022-08-04T07:33:38;6.35;;;2.47;;
69459;SDS011;57182;55.712;37.612;2022-08-04T07:41:31;7.32;;;2.83;;
69459;SDS011;57182;55.712;37.612;2022-08-04T07:49:36;4.80;;;2.65;;
69459;SDS011;57182;55.712;37.612;2022-08-04T08:05:51;5.03;;;2.92;;
69459;SDS011;57182;55.712;37.612;2022-08-04T08:16:42;9.65;;;3.00;;
69459;SDS011;57182;55.712;37.612;2022-08-04T08:20:33;10.45;;;3.42;;
69459;SDS011;57182;55.712;37.612;2022-08-04T08:24:32;9.73;;;3.30;;
69459;SDS011;57182;55.712;37.612;2022-08-04T08:28:28;3.55;;;2.97;;
69459;SDS011;57182;55.712;37.612;2022-08-04T08:31:56;5.32;;;2.72;;
69459;SDS011;57182;55.712;37.612;2022-08-04T08:35:45;4.40;;;2.90;;
69459;SDS011;57182;55.712;37.612;2022-08-04T08:39:06;5.05;;;2.95;;
69459;SDS011;57182;55.712;37.612;2022-08-04T08:42:35;7.85;;;3.20;;
69459;SDS011;57182;55.712;37.612;2022-08-04T08:50:03;7.78;;;3.53;;
69459;SDS011;57182;55.712;37.612;2022-08-04T09:05:27;6.57;;;3.88;;
69459;SDS011;57182;55.712;37.612;2022-08-04T09:21:58;7.35;;;3.67;;
69459;SDS011;57182;55.712;37.612;2022-08-04T09:25:25;7.95;;;4.43;;
69459;SDS011;57182;55.712;37.612;2022-08-04T09:28:28;12.68;;;4.43;;
69459;SDS011;57182;55.712;37.612;2022-08-04T09:42:34;6.03;;;4.25;;
69459;SDS011;57182;55.712;37.612;2022-08-04T10:00:59;8.27;;;4.80;;
69459;SDS011;57182;55.712;37.612;2022-08-04T10:04:20;7.25;;;5.32;;
69459;SDS011;57182;55.712;37.612;2022-08-04T10:11:34;7.38;;;4.72;;
69459;SDS011;57182;55.712;37.612;2022-08-04T10:22:04;6.25;;;5.05;;
69459;SDS011;57182;55.712;37.612;2022-08-04T10:29:05;13.43;;;5.38;;
69459;SDS011;57182;55.712;37.612;2022-08-04T10:32:33;7.15;;;5.47;;
69459;SDS011;57182;55.712;37.612;2022-08-04T10:35:30;7.70;;;5.43;;
69459;SDS011;57182;55.712;37.612;2022-08-04T10:38:51;9.73;;;5.47;;
69459;SDS011;57182;55.712;37.612;2022-08-04T10:52:25;10.77;;;7.03;;
69459;SDS011;57182;55.712;37.612;2022-08-04T10:58:24;7.35;;;6.00;;
69459;SDS011;57182;55.712;37.612;2022-08-04T11:01:21;10.65;;;6.15;;
69459;SDS011;57182;55.712;37.612;2022-08-04T11:04:25;10.13;;;6.03;;
69459;SDS011;57182;55.712;37.612;2022-08-04T11:07:19;10.57;;;6.40;;
69459;SDS011;57182;55.712;37.612;2022-08-04T11:09:53;8.60;;;5.97;;
69459;SDS011;57182;55.712;37.612;2022-08-04T11:12:30;12.07;;;7.88;;
69459;SDS011;57182;55.712;37.612;2022-08-04T11:15:27;12.68;;;6.68;;
69459;SDS011;57182;55.712;37.612;2022-08-04T11:18:52;9.70;;;6.10;;
69459;SDS011;57182;55.712;37.612;2022-08-04T11:21:52;10.30;;;6.10;;
69459;SDS011;57182;55.712;37.612;2022-08-04T11:24:50;10.05;;;5.50;;
69459;SDS011;57182;55.712;37.612;2022-08-04T11:27:50;10.55;;;6.22;;
69459;SDS011;57182;55.712;37.612;2022-08-04T11:30:45;8.50;;;6.28;;
69459;SDS011;57182;55.712;37.612;2022-08-04T11:43:15;7.97;;;5.28;;
69459;SDS011;57182;55.712;37.612;2022-08-04T11:46:33;7.68;;;6.18;;
69459;SDS011;57182;55.712;37.612;2022-08-04T11:49:58;8.38;;;5.82;;
69459;SDS011;57182;55.712;37.612;2022-08-04T11:53:05;9.20;;;6.22;;
69459;SDS011;57182;55.712;37.612;2022-08-04T11:56:09;11.88;;;6.88;;
69459;SDS011;57182;55.712;37.612;2022-08-04T11:59:06;7.35;;;6.30;;
69459;SDS011;57182;55.712;37.612;2022-08-04T12:05:19;11.68;;;6.88;;
69459;SDS011;57182;55.712;37.612;2022-08-04T12:14:58;13.23;;;7.55;;
69459;SDS011;57182;55.712;37.612;2022-08-04T12:18:20;11.88;;;7.22;;
69459;SDS011;57182;55.712;37.612;2022-08-04T12:21:04;14.32;;;7.65;;
69459;SDS011;57182;55.712;37.612;2022-08-04T12:23:49;14.45;;;7.20;;
69459;SDS011;57182;55.712;37.612;2022-08-04T12:26:49;12.30;;;7.32;;
69459;SDS011;57182;55.712;37.612;2022-08-04T12:29:38;15.85;;;7.18;;
69459;SDS011;57182;55.712;37.612;2022-08-04T12:33:37;11.38;;;7.13;;
69459;SDS011;57182;55.712;37.612;2022-08-04T12:37:04;11.05;;;7.00;;
69459;SDS011;57182;55.712;37.612;2022-08-04T12:39:59;14.55;;;6.90;;
69459;SDS011;57182;55.712;37.612;2022-08-04T12:43:36;12.70;;;7.40;;
69459;SDS011;57182;55.712;37.612;2022-08-04T12:47:02;17.70;;;8.23;;
69459;SDS011;57182;55.712;37.612;2022-08-04T12:50:22;14.10;;;7.63;;
69459;SDS011;57182;55.712;37.612;2022-08-04T12:53:58;11.00;;;7.45;;
69459;SDS011;57182;55.712;37.612;2022-08-04T12:57:42;15.57;;;7.80;;
69459;SDS011;57182;55.712;37.612;2022-08-04T13:01:04;12.63;;;7.95;;
69459;SDS011;57182;55.712;37.612;2022-08-04T13:04:11;10.70;;;7.53;;
69459;SDS011;57182;55.712;37.612;2022-08-04T13:07:34;9.43;;;7.30;;
69459;SDS011;57182;55.712;37.612;2022-08-04T13:10:33;15.38;;;7.80;;
69459;SDS011;57182;55.712;37.612;2022-08-04T13:14:17;10.63;;;7.47;;
69459;SDS011;57182;55.712;37.612;2022-08-04T13:17:40;14.02;;;7.57;;
69459;SDS011;57182;55.712;37.612;2022-08-04T13:21:11;10.25;;;7.30;;
69459;SDS011;57182;55.712;37.612;2022-08-04T13:24:29;13.93;;;7.82;;
69459;SDS011;57182;55.712;37.612;2022-08-04T13:27:47;13.38;;;7.05;;
69459;SDS011;57182;55.712;37.612;2022-08-04T13:31:17;14.57;;;7.65;;
69459;SDS011;57182;55.712;37.612;2022-08-04T13:34:10;11.98;;;7.18;;
69459;SDS011;57182;55.712;37.612;2022-08-04T13:36:55;35.50;;;8.35;;
69459;SDS011;57182;55.712;37.612;2022-08-04T13:40:24;9.05;;;7.03;;
69459;SDS011;57182;55.712;37.612;2022-08-04T13:43:27;13.70;;;6.75;;
69459;SDS011;57182;55.712;37.612;2022-08-04T13:46:44;10.57;;;7.15;;
69459;SDS011;57182;55.712;37.612;2022-08-04T13:53:52;11.57;;;7.28;;
69459;SDS011;57182;55.712;37.612;2022-08-04T13:56:45;15.77;;;8.20;;
69459;SDS011;57182;55.712;37.612;2022-08-04T14:03:28;13.65;;;7.93;;
69459;SDS011;57182;55.712;37.612;2022-08-04T14:10:30;14.60;;;7.97;;
69459;SDS011;57182;55.712;37.612;2022-08-04T14:16:32;14.98;;;8.07;;
69459;SDS011;57182;55.712;37.612;2022-08-04T14:20:00;9.95;;;7.95;;
69459;SDS011;57182;55.712;37.612;2022-08-04T14:23:24;14.05;;;9.70;;
69459;SDS011;57182;55.712;37.612;2022-08-04T14:43:09;15.98;;;8.60;;
69459;SDS011;57182;55.712;37.612;2022-08-04T14:47:18;12.73;;;8.68;;
69459;SDS011;57182;55.712;37.612;2022-08-04T15:07:02;17.83;;;9.85;;
69459;SDS011;57182;55.712;37.612;2022-08-04T15:10:56;19.27;;;11.70;;
69459;SDS011;57182;55.712;37.612;2022-08-04T15:18:43;14.88;;;9.30;;
69459;SDS011;57182;55.712;37.612;2022-08-04T15:30:56;19.90;;;9.68;;
69459;SDS011;57182;55.712;37.612;2022-08-04T15:34:59;18.92;;;12.02;;
69459;SDS011;57182;55.712;37.612;2022-08-04T15:38:28;15.35;;;9.60;;
69459;SDS011;57182;55.712;37.612;2022-08-04T15:45:47;17.23;;;9.30;;
69459;SDS011;57182;55.712;37.612;2022-08-04T15:49:07;15.23;;;9.98;;
69459;SDS011;57182;55.712;37.612;2022-08-04T15:52:24;15.05;;;10.00;;
69459;SDS011;57182;55.712;37.612;2022-08-04T15:55:42;17.08;;;9.98;;
69459;SDS011;57182;55.712;37.612;2022-08-04T15:58:54;15.32;;;10.05;;
69459;SDS011;57182;55.712;37.612;2022-08-04T16:01:43;16.42;;;9.93;;
69459;SDS011;57182;55.712;37.612;2022-08-04T16:09:31;15.82;;;8.82;;
69459;SDS011;57182;55.712;37.612;2022-08-04T16:12:51;19.23;;;9.90;;
69459;SDS011;57182;55.712;37.612;2022-08-04T16:15:56;18.30;;;10.85;;
69459;SDS011;57182;55.712;37.612;2022-08-04T16:22:56;19.52;;;10.35;;
69459;SDS011;57182;55.712;37.612;2022-08-04T17:38:47;23.23;;;10.55;;
69459;SDS011;57182;55.712;37.612;2022-08-04T18:09:29;29.05;;;14.00;;
69459;SDS011;57182;55.712;37.612;2022-08-04T21:31:04;33.65;;;11.80;;
69459;SDS011;57182;55.712;37.612;2022-08-04T21:34:08;38.97;;;12.95;;
69459;SDS011;57182;55.712;37.612;2022-08-04T21:38:00;29.67;;;12.30;;
69459;SDS011;57182;55.712;37.612;2022-08-04T21:41:43;31.13;;;12.68;;
69459;SDS011;57182;55.712;37.612;2022-08-04T21:45:24;32.65;;;12.48;;
69459;SDS011;57182;55.712;37.612;2022-08-04T21:58:52;29.45;;;12.90;;
69459;SDS011;57182;55.712;37.612;2022-08-04T22:04:12;35.60;;;13.00;;
69459;SDS011;57182;55.712;37.612;2022-08-04T22:06:41;26.70;;;12.35;;
69459;SDS011;57182;55.712;37.612;2022-08-04T22:09:18;31.23;;;13.35;;
69459;SDS011;57182;55.712;37.612;2022-08-04T22:11:49;30.55;;;13.43;;
69459;SDS011;57182;55.712;37.612;2022-08-04T22:14:48;37.47;;;13.43;;
69459;SDS011;57182;55.712;37.612;2022-08-04T22:17:37;31.70;;;12.65;;
69459;SDS011;57182;55.712;37.612;2022-08-04T22:20:20;28.05;;;12.35;;
69459;SDS011;57182;55.712;37.612;2022-08-04T22:22:58;39.08;;;13.82;;
69459;SDS011;57182;55.712;37.612;2022-08-04T22:25:42;37.78;;;12.73;;
69459;SDS011;57182;55.712;37.612;2022-08-04T22:28:24;25.15;;;13.23;;
69459;SDS011;57182;55.712;37.612;2022-08-04T22:30:56;28.38;;;13.15;;
69459;SDS011;57182;55.712;37.612;2022-08-04T22:33:27;27.25;;;12.93;;
69459;SDS011;57182;55.712;37.612;2022-08-04T22:36:16;26.58;;;12.85;;
69459;SDS011;57182;55.712;37.612;2022-08-04T22:40:13;30.13;;;12.90;;
69459;SDS011;57182;55.712;37.612;2022-08-04T22:42:49;34.35;;;13.85;;
69459;SDS011;57182;55.712;37.612;2022-08-04T22:46:02;29.95;;;13.45;;
69459;SDS011;57182;55.712;37.612;2022-08-04T22:49:13;31.85;;;13.85;;
69459;SDS011;57182;55.712;37.612;2022-08-04T22:52:00;32.83;;;12.80;;
69459;SDS011;57182;55.712;37.612;2022-08-04T22:55:11;30.98;;;13.77;;
69459;SDS011;57182;55.712;37.612;2022-08-04T22:58:31;33.55;;;13.52;;
69459;SDS011;57182;55.712;37.612;2022-08-04T23:01:26;26.42;;;12.23;;
69459;SDS011;57182;55.712;37.612;2022-08-04T23:04:30;23.75;;;12.23;;
69459;SDS011;57182;55.712;37.612;2022-08-04T23:07:54;25.50;;;13.43;;
69459;SDS011;57182;55.712;37.612;2022-08-04T23:10:36;32.22;;;13.23;;
69459;SDS011;57182;55.712;37.612;2022-08-04T23:13:46;23.73;;;11.82;;
69459;SDS011;57182;55.712;37.612;2022-08-04T23:17:00;23.80;;;12.80;;
69459;SDS011;57182;55.712;37.612;2022-08-04T23:20:16;27.38;;;13.15;;
69459;SDS011;57182;55.712;37.612;2022-08-04T23:23:10;30.77;;;13.32;;
69459;SDS011;57182;55.712;37.612;2022-08-04T23:26:47;30.20;;;13.07;;
69459;SDS011;57182;55.712;37.612;2022-08-04T23:29:50;23.58;;;11.48;;
69459;SDS011;57182;55.712;37.612;2022-08-04T23:33:21;27.85;;;13.70;;
69459;SDS011;57182;55.712;37.612;2022-08-04T23:36:35;27.58;;;13.13;;
69459;SDS011;57182;55.712;37.612;2022-08-04T23:43:38;28.05;;;12.77;;
69459;SDS011;57182;55.712;37.612;2022-08-04T23:47:00;22.10;;;12.43;;
69459;SDS011;57182;55.712;37.612;2022-08-04T23:50:24;27.00;;;12.88;;
69459;SDS011;57182;55.712;37.612;2022-08-04T23:53:58;23.13;;;13.55;;
